MSC Michela — CQID5 — position and weather

sailwx.info

Track history (hours):
 
Tides and Currents Weather Stations Pressure Air Temp Water Temp Dewpoint Dewpoint Depression Visibility Wind Speed Wind Dir Waves Ship Positions

MSC Michela

Last reported at 2018-Jun-20 14:59 UTC. Time now 2018-Jun-20 15:14 UTC.
Position N 33°45' W 118°14'.

Length 300 m; draft 13.2 m.

Type: Ship (hazmat cat A). MMSI: 255805929.

Date/timePositionNaut miles runAvg speedWind from/ knotsBaromVisibWave heightAir tempDewpointWater temp
2018-Jun-20 14:59N 33°45' W 118°14'0 0.0
2018-Jun-20 14:29N 33°45' W 118°14'0 0.0
2018-Jun-20 13:59N 33°45' W 118°14'0 0.0
2018-Jun-20 13:29N 33°45' W 118°14'0 0.0
2018-Jun-20 12:59N 33°45' W 118°14'0 0.0
2018-Jun-20 12:29N 33°45' W 118°14'0 0.0
2018-Jun-20 12:00N 33°45' W 118°14'1 1.6
2018-Jun-20 11:29N 33°45' W 118°13'4 8.0
2018-Jun-20 11:00N 33°42' W 118°11'4 7.9
2018-Jun-20 10:30N 33°38' W 118°10'4 7.9
2018-Jun-20 10:00N 33°34' W 118°09'510.2
2018-Jun-20 09:30N 33°29' W 118°07'510.2
2018-Jun-20 09:00N 33°24' W 118°05'1010.3
2018-Jun-20 08:02N 33°15' W 118°01'2 9.6
2018-Jun-20 07:51N 33°13' W 118°00'3 9.5
2018-Jun-20 07:30N 33°10' W 117°59'510.8
2018-Jun-20 07:00N 33°05' W 117°56'611.6
2018-Jun-20 06:30N 32°60' W 117°53'711.1
2018-Jun-20 05:55N 32°54' W 117°50'711.0
2018-Jun-20 05:19N 32°48' W 117°46'411.3
2018-Jun-20 05:00N 32°45' W 117°44'611.2
2018-Jun-20 04:30N 32°40' W 117°41'611.2
2018-Jun-20 04:00N 32°35' W 117°39'611.3
2018-Jun-20 03:30N 32°30' W 117°36'611.4
2018-Jun-20 02:58N 32°24' W 117°34'511.3
2018-Jun-20 02:29N 32°19' W 117°32'711.3
2018-Jun-20 01:54N 32°12' W 117°30'  
2018-Jun-11 19:10N 09°11' W 079°52'1 9.2
2018-Jun-11 19:00N 09°11' W 079°53'4 7.8
2018-Jun-11 18:30N 09°14' W 079°55'1 0.7
2018-Jun-11 16:45N 09°15' W 079°54'0 0.0
2018-Jun-11 16:30N 09°15' W 079°54'0 0.0
2018-Jun-11 15:39N 09°15' W 079°54'0 0.0
2018-Jun-11 15:30N 09°15' W 079°54'0 0.0
2018-Jun-11 15:00N 09°15' W 079°54'0 0.1
2018-Jun-11 14:21N 09°15' W 079°54'1 1.8
2018-Jun-11 14:00N 09°16' W 079°55'0 0.4
2018-Jun-11 13:30N 09°16' W 079°55'0 0.5
2018-Jun-11 13:01N 09°16' W 079°55'0 0.3
2018-Jun-11 12:30N 09°16' W 079°55'0 0.2
2018-Jun-11 12:00N 09°16' W 079°55'0 0.4
2018-Jun-11 11:30N 09°17' W 079°55'0 0.7
2018-Jun-11 11:00N 09°17' W 079°55'1 2.7
2018-Jun-11 10:30N 09°18' W 079°55'3 5.4
2018-Jun-11 09:59N 09°21' W 079°55'1 1.4
2018-Jun-11 09:29N 09°21' W 079°54'0 0.0
2018-Jun-11 08:59N 09°21' W 079°54'0 0.0
2018-Jun-11 08:29N 09°21' W 079°54'0 0.0
2018-Jun-11 07:59N 09°21' W 079°54'0 0.0
2018-Jun-11 07:29N 09°21' W 079°54'0 0.0
2018-Jun-11 06:59N 09°21' W 079°54'0 0.0
2018-Jun-11 06:29N 09°21' W 079°54'0 0.0
2018-Jun-11 05:59N 09°21' W 079°54'0 0.0
2018-Jun-11 05:29N 09°21' W 079°54'0 0.0
2018-Jun-11 04:59N 09°21' W 079°54'0 0.0
2018-Jun-11 04:29N 09°21' W 079°54'0 0.0
2018-Jun-11 03:59N 09°21' W 079°54'0 0.0
2018-Jun-11 03:29N 09°21' W 079°54'0 0.0
2018-Jun-11 02:59N 09°21' W 079°54'0 0.0
2018-Jun-11 02:29N 09°21' W 079°54'0 0.0
2018-Jun-11 01:59N 09°21' W 079°54'0 0.0
2018-Jun-11 01:29N 09°21' W 079°54'0 0.0
2018-Jun-11 00:59N 09°21' W 079°54'0 0.0
2018-Jun-11 00:29N 09°21' W 079°54'0 0.0
2018-Jun-10 23:59N 09°21' W 079°54'0 0.0
2018-Jun-10 23:29N 09°21' W 079°54'0 0.0
2018-Jun-10 22:59N 09°21' W 079°54'0 0.0
2018-Jun-10 22:29N 09°21' W 079°54'0 0.0
2018-Jun-10 21:59N 09°21' W 079°54'0 0.0
2018-Jun-10 21:29N 09°21' W 079°54'0 0.0
2018-Jun-10 20:59N 09°21' W 079°54'0 0.0
2018-Jun-10 20:29N 09°21' W 079°54'0 0.0
2018-Jun-10 19:59N 09°21' W 079°54'0 0.0
2018-Jun-10 19:29N 09°21' W 079°54'0 0.0
2018-Jun-10 18:59N 09°21' W 079°54'0 0.0
2018-Jun-10 18:29N 09°21' W 079°54'0 0.0
2018-Jun-10 17:59N 09°21' W 079°54'0 0.0
2018-Jun-10 17:29N 09°21' W 079°54'0 0.0
2018-Jun-10 16:59N 09°21' W 079°54'0 0.0
2018-Jun-10 16:29N 09°21' W 079°54'0 0.0
2018-Jun-10 15:59N 09°21' W 079°54'0 0.0
2018-Jun-10 15:29N 09°21' W 079°54'  
Track history (hours):
 
Tides and Currents Weather Stations Pressure Air Temp Water Temp Dewpoint Dewpoint Depression Visibility Wind Speed Wind Dir Waves Ship Positions

MSC Michela

Last reported at 2018-Jun-20 14:59 UTC. Time now 2018-Jun-20 15:14 UTC.
Position N 33°45' W 118°14'.

Length 300 m; draft 13.2 m.

Type: Ship (hazmat cat A). MMSI: 255805929.

Date/timePositionNaut miles runAvg speedWind from/ knotsBaromVisibWave heightAir tempDewpointWater temp
2018-Jun-20 14:59N 33°45' W 118°14'0 0.0
2018-Jun-20 14:29N 33°45' W 118°14'0 0.0
2018-Jun-20 13:59N 33°45' W 118°14'0 0.0
2018-Jun-20 13:29N 33°45' W 118°14'0 0.0
2018-Jun-20 12:59N 33°45' W 118°14'0 0.0
2018-Jun-20 12:29N 33°45' W 118°14'0 0.0
2018-Jun-20 12:00N 33°45' W 118°14'1 1.6
2018-Jun-20 11:29N 33°45' W 118°13'4 8.0
2018-Jun-20 11:00N 33°42' W 118°11'4 7.9
2018-Jun-20 10:30N 33°38' W 118°10'4 7.9
2018-Jun-20 10:00N 33°34' W 118°09'510.2
2018-Jun-20 09:30N 33°29' W 118°07'510.2
2018-Jun-20 09:00N 33°24' W 118°05'1010.3
2018-Jun-20 08:02N 33°15' W 118°01'2 9.6
2018-Jun-20 07:51N 33°13' W 118°00'3 9.5
2018-Jun-20 07:30N 33°10' W 117°59'510.8
2018-Jun-20 07:00N 33°05' W 117°56'611.6
2018-Jun-20 06:30N 32°60' W 117°53'711.1
2018-Jun-20 05:55N 32°54' W 117°50'711.0
2018-Jun-20 05:19N 32°48' W 117°46'411.3
2018-Jun-20 05:00N 32°45' W 117°44'611.2
2018-Jun-20 04:30N 32°40' W 117°41'611.2
2018-Jun-20 04:00N 32°35' W 117°39'611.3
2018-Jun-20 03:30N 32°30' W 117°36'611.4
2018-Jun-20 02:58N 32°24' W 117°34'511.3
2018-Jun-20 02:29N 32°19' W 117°32'711.3
2018-Jun-20 01:54N 32°12' W 117°30'  
2018-Jun-11 19:10N 09°11' W 079°52'1 9.2
2018-Jun-11 19:00N 09°11' W 079°53'4 7.8
2018-Jun-11 18:30N 09°14' W 079°55'1 0.7
2018-Jun-11 16:45N 09°15' W 079°54'0 0.0
2018-Jun-11 16:30N 09°15' W 079°54'0 0.0
2018-Jun-11 15:39N 09°15' W 079°54'0 0.0
2018-Jun-11 15:30N 09°15' W 079°54'0 0.0
2018-Jun-11 15:00N 09°15' W 079°54'0 0.1
2018-Jun-11 14:21N 09°15' W 079°54'1 1.8
2018-Jun-11 14:00N 09°16' W 079°55'0 0.4
2018-Jun-11 13:30N 09°16' W 079°55'0 0.5
2018-Jun-11 13:01N 09°16' W 079°55'0 0.3
2018-Jun-11 12:30N 09°16' W 079°55'0 0.2
2018-Jun-11 12:00N 09°16' W 079°55'0 0.4
2018-Jun-11 11:30N 09°17' W 079°55'0 0.7
2018-Jun-11 11:00N 09°17' W 079°55'1 2.7
2018-Jun-11 10:30N 09°18' W 079°55'3 5.4
2018-Jun-11 09:59N 09°21' W 079°55'1 1.4
2018-Jun-11 09:29N 09°21' W 079°54'0 0.0
2018-Jun-11 08:59N 09°21' W 079°54'0 0.0
2018-Jun-11 08:29N 09°21' W 079°54'0 0.0
2018-Jun-11 07:59N 09°21' W 079°54'0 0.0
2018-Jun-11 07:29N 09°21' W 079°54'0 0.0
2018-Jun-11 06:59N 09°21' W 079°54'0 0.0
2018-Jun-11 06:29N 09°21' W 079°54'0 0.0
2018-Jun-11 05:59N 09°21' W 079°54'0 0.0
2018-Jun-11 05:29N 09°21' W 079°54'0 0.0
2018-Jun-11 04:59N 09°21' W 079°54'0 0.0
2018-Jun-11 04:29N 09°21' W 079°54'0 0.0
2018-Jun-11 03:59N 09°21' W 079°54'0 0.0
2018-Jun-11 03:29N 09°21' W 079°54'0 0.0
2018-Jun-11 02:59N 09°21' W 079°54'0 0.0
2018-Jun-11 02:29N 09°21' W 079°54'0 0.0
2018-Jun-11 01:59N 09°21' W 079°54'0 0.0
2018-Jun-11 01:29N 09°21' W 079°54'0 0.0
2018-Jun-11 00:59N 09°21' W 079°54'0 0.0
2018-Jun-11 00:29N 09°21' W 079°54'0 0.0
2018-Jun-10 23:59N 09°21' W 079°54'0 0.0
2018-Jun-10 23:29N 09°21' W 079°54'0 0.0
2018-Jun-10 22:59N 09°21' W 079°54'0 0.0
2018-Jun-10 22:29N 09°21' W 079°54'0 0.0
2018-Jun-10 21:59N 09°21' W 079°54'0 0.0
2018-Jun-10 21:29N 09°21' W 079°54'0 0.0
2018-Jun-10 20:59N 09°21' W 079°54'0 0.0
2018-Jun-10 20:29N 09°21' W 079°54'0 0.0
2018-Jun-10 19:59N 09°21' W 079°54'0 0.0
2018-Jun-10 19:29N 09°21' W 079°54'0 0.0
2018-Jun-10 18:59N 09°21' W 079°54'0 0.0
2018-Jun-10 18:29N 09°21' W 079°54'0 0.0
2018-Jun-10 17:59N 09°21' W 079°54'0 0.0
2018-Jun-10 17:29N 09°21' W 079°54'0 0.0
2018-Jun-10 16:59N 09°21' W 079°54'0 0.0
2018-Jun-10 16:29N 09°21' W 079°54'0 0.0
2018-Jun-10 15:59N 09°21' W 079°54'0 0.0
2018-Jun-10 15:29N 09°21' W 079°54'  

Dump ship's entire track history